sensor_id;sensor_type;location;lat;lon;timestamp;pressure;altitude;pressure_sealevel;temperature;humidity
7050;BME280;22263;52.260;10.548;2023-10-19T00:00:57;99016.84;;;9.95;100.00
7050;BME280;22263;52.260;10.548;2023-10-19T00:03:27;99009.00;;;9.90;100.00
7050;BME280;22263;52.260;10.548;2023-10-19T00:05:58;99009.41;;;9.88;100.00
7050;BME280;22263;52.260;10.548;2023-10-19T00:08:30;99004.66;;;9.92;100.00
7050;BME280;22263;52.260;10.548;2023-10-19T00:11:03;98996.44;;;9.85;100.00
7050;BME280;22263;52.260;10.548;2023-10-19T00:13:36;98986.63;;;9.81;100.00
7050;BME280;22263;52.260;10.548;2023-10-19T00:16:06;98981.06;;;9.84;100.00
7050;BME280;22263;52.260;10.548;2023-10-19T00:18:39;98986.25;;;9.79;100.00
7050;BME280;22263;52.260;10.548;2023-10-19T00:21:12;98986.38;;;9.68;100.00
7050;BME280;22263;52.260;10.548;2023-10-19T00:23:47;98992.28;;;9.67;100.00
7050;BME280;22263;52.260;10.548;2023-10-19T00:26:18;98989.84;;;9.76;100.00
7050;BME280;22263;52.260;10.548;2023-10-19T00:29:01;98988.88;;;9.52;100.00
7050;BME280;22263;52.260;10.548;2023-10-19T00:31:45;98989.28;;;9.54;100.00
7050;BME280;22263;52.260;10.548;2023-10-19T00:34:15;98987.16;;;9.69;100.00
7050;BME280;22263;52.260;10.548;2023-10-19T00:36:51;98984.41;;;9.69;100.00
7050;BME280;22263;52.260;10.548;2023-10-19T00:39:22;98980.94;;;9.57;100.00
7050;BME280;22263;52.260;10.548;2023-10-19T00:41:54;98983.72;;;9.57;100.00
7050;BME280;22263;52.260;10.548;2023-10-19T00:44:26;98982.03;;;9.67;100.00
7050;BME280;22263;52.260;10.548;2023-10-19T00:47:04;98973.09;;;9.52;100.00
7050;BME280;22263;52.260;10.548;2023-10-19T00:49:34;98968.81;;;9.48;100.00
7050;BME280;22263;52.260;10.548;2023-10-19T00:52:10;98968.88;;;9.41;100.00
7050;BME280;22263;52.260;10.548;2023-10-19T00:54:47;98957.53;;;9.32;100.00
7050;BME280;22263;52.260;10.548;2023-10-19T00:57:25;98953.53;;;9.40;100.00
7050;BME280;22263;52.260;10.548;2023-10-19T01:00:07;98952.44;;;9.30;100.00
7050;BME280;22263;52.260;10.548;2023-10-19T01:02:48;98948.91;;;9.30;100.00
7050;BME280;22263;52.260;10.548;2023-10-19T01:05:28;98940.31;;;9.21;100.00
7050;BME280;22263;52.260;10.548;2023-10-19T01:08:07;98944.59;;;9.25;100.00
7050;BME280;22263;52.260;10.548;2023-10-19T01:10:51;98928.88;;;9.18;100.00
7050;BME280;22263;52.260;10.548;2023-10-19T01:13:21;98937.16;;;9.18;100.00
7050;BME280;22263;52.260;10.548;2023-10-19T01:15:54;98928.56;;;9.09;100.00
7050;BME280;22263;52.260;10.548;2023-10-19T01:18:25;98925.06;;;9.02;100.00
7050;BME280;22263;52.260;10.548;2023-10-19T01:21:01;98929.75;;;9.08;100.00
7050;BME280;22263;52.260;10.548;2023-10-19T01:23:36;98922.00;;;8.96;100.00
7050;BME280;22263;52.260;10.548;2023-10-19T01:26:11;98925.06;;;9.02;100.00
7050;BME280;22263;52.260;10.548;2023-10-19T01:28:45;98922.31;;;9.05;100.00
7050;BME280;22263;52.260;10.548;2023-10-19T01:31:21;98932.28;;;8.89;100.00
7050;BME280;22263;52.260;10.548;2023-10-19T01:34:22;98931.41;;;8.99;100.00
7050;BME280;22263;52.260;10.548;2023-10-19T01:36:54;98930.19;;;9.03;100.00
7050;BME280;22263;52.260;10.548;2023-10-19T01:39:26;98936.47;;;9.07;100.00
7050;BME280;22263;52.260;10.548;2023-10-19T01:41:53;98932.59;;;9.01;100.00
7050;BME280;22263;52.260;10.548;2023-10-19T01:44:26;98927.06;;;9.01;100.00
7050;BME280;22263;52.260;10.548;2023-10-19T01:46:53;98922.75;;;9.00;100.00
7050;BME280;22263;52.260;10.548;2023-10-19T01:49:23;98918.41;;;8.99;100.00
7050;BME280;22263;52.260;10.548;2023-10-19T01:51:54;98927.16;;;8.91;100.00
7050;BME280;22263;52.260;10.548;2023-10-19T01:54:26;98919.66;;;8.88;100.00
7050;BME280;22263;52.260;10.548;2023-10-19T01:56:55;98924.34;;;8.94;100.00
7050;BME280;22263;52.260;10.548;2023-10-19T01:59:27;98916.16;;;8.87;100.00
7050;BME280;22263;52.260;10.548;2023-10-19T02:01:56;98918.13;;;8.83;100.00
7050;BME280;22263;52.260;10.548;2023-10-19T02:04:26;98912.25;;;8.81;100.00
7050;BME280;22263;52.260;10.548;2023-10-19T02:06:53;98910.72;;;8.77;100.00
7050;BME280;22263;52.260;10.548;2023-10-19T02:09:30;98907.09;;;8.87;100.00
7050;BME280;22263;52.260;10.548;2023-10-19T02:11:59;98887.81;;;8.83;100.00
7050;BME280;22263;52.260;10.548;2023-10-19T02:14:33;98881.56;;;8.79;100.00
7050;BME280;22263;52.260;10.548;2023-10-19T02:17:01;98881.63;;;8.72;100.00
7050;BME280;22263;52.260;10.548;2023-10-19T02:19:31;98869.38;;;8.73;100.00
7050;BME280;22263;52.260;10.548;2023-10-19T02:22:03;98872.94;;;8.77;100.00
7050;BME280;22263;52.260;10.548;2023-10-19T02:24:47;98860.81;;;8.64;100.00
7050;BME280;22263;52.260;10.548;2023-10-19T02:27:17;98853.72;;;8.66;100.00
7050;BME280;22263;52.260;10.548;2023-10-19T02:30:07;98859.50;;;8.79;100.00
7050;BME280;22263;52.260;10.548;2023-10-19T02:32:39;98851.97;;;8.83;100.00
7050;BME280;22263;52.260;10.548;2023-10-19T02:35:09;98841.03;;;8.76;100.00
7050;BME280;22263;52.260;10.548;2023-10-19T02:37:40;98840.22;;;8.79;100.00
7050;BME280;22263;52.260;10.548;2023-10-19T02:40:13;98833.13;;;8.78;100.00
7050;BME280;22263;52.260;10.548;2023-10-19T02:42:46;98819.78;;;8.77;100.00
7050;BME280;22263;52.260;10.548;2023-10-19T02:45:18;98820.53;;;8.81;100.00
7050;BME280;22263;52.260;10.548;2023-10-19T02:47:51;98817.81;;;8.77;100.00
7050;BME280;22263;52.260;10.548;2023-10-19T02:50:28;98811.88;;;8.79;100.00
7050;BME280;22263;52.260;10.548;2023-10-19T02:52:57;98824.06;;;8.81;100.00
7050;BME280;22263;52.260;10.548;2023-10-19T02:55:35;98808.72;;;8.80;100.00
7050;BME280;22263;52.260;10.548;2023-10-19T02:58:09;98803.00;;;8.57;100.00
7050;BME280;22263;52.260;10.548;2023-10-19T03:00:40;98802.94;;;8.64;100.00
7050;BME280;22263;52.260;10.548;2023-10-19T03:03:13;98798.88;;;8.79;100.00
7050;BME280;22263;52.260;10.548;2023-10-19T03:05:44;98802.88;;;8.71;100.00
7050;BME280;22263;52.260;10.548;2023-10-19T03:08:13;98798.50;;;8.77;100.00
7050;BME280;22263;52.260;10.548;2023-10-19T03:10:49;98782.63;;;8.92;100.00
7050;BME280;22263;52.260;10.548;2023-10-19T03:13:31;98784.25;;;8.86;100.00
7050;BME280;22263;52.260;10.548;2023-10-19T03:16:02;98783.84;;;8.87;100.00
7050;BME280;22263;52.260;10.548;2023-10-19T03:18:39;98785.78;;;8.90;100.00
7050;BME280;22263;52.260;10.548;2023-10-19T03:21:10;98795.50;;;8.61;100.00
7050;BME280;22263;52.260;10.548;2023-10-19T03:23:38;98800.38;;;8.87;100.00
7050;BME280;22263;52.260;10.548;2023-10-19T03:26:11;98790.09;;;8.91;100.00
7050;BME280;22263;52.260;10.548;2023-10-19T03:28:50;98776.19;;;9.02;100.00
7050;BME280;22263;52.260;10.548;2023-10-19T03:31:22;98771.06;;;9.04;100.00
7050;BME280;22263;52.260;10.548;2023-10-19T03:33:53;98772.22;;;9.06;100.00
7050;BME280;22263;52.260;10.548;2023-10-19T03:36:27;98764.91;;;8.89;100.00
7050;BME280;22263;52.260;10.548;2023-10-19T03:39:00;98768.41;;;8.93;100.00
7050;BME280;22263;52.260;10.548;2023-10-19T03:41:44;98761.25;;;8.99;100.00
7050;BME280;22263;52.260;10.548;2023-10-19T03:44:17;98767.97;;;8.98;100.00
7050;BME280;22263;52.260;10.548;2023-10-19T03:46:52;98769.03;;;9.08;100.00
7050;BME280;22263;52.260;10.548;2023-10-19T03:49:31;98774.78;;;8.87;100.00
7050;BME280;22263;52.260;10.548;2023-10-19T03:52:09;98769.91;;;9.01;100.00
7050;BME280;22263;52.260;10.548;2023-10-19T03:54:57;98780.44;;;8.72;100.00
7050;BME280;22263;52.260;10.548;2023-10-19T03:57:30;98765.44;;;8.73;100.00
7050;BME280;22263;52.260;10.548;2023-10-19T04:00:02;98762.91;;;8.52;100.00
7050;BME280;22263;52.260;10.548;2023-10-19T04:02:42;98756.66;;;8.48;100.00
7050;BME280;22263;52.260;10.548;2023-10-19T04:05:14;98752.75;;;8.42;100.00
7050;BME280;22263;52.260;10.548;2023-10-19T04:07:47;98748.72;;;8.54;100.00
7050;BME280;22263;52.260;10.548;2023-10-19T04:10:22;98753.78;;;8.59;100.00
7050;BME280;22263;52.260;10.548;2023-10-19T04:13:14;98756.09;;;8.64;100.00
7050;BME280;22263;52.260;10.548;2023-10-19T04:15:44;98756.56;;;8.55;100.00
7050;BME280;22263;52.260;10.548;2023-10-19T04:18:16;98739.03;;;8.39;100.00
7050;BME280;22263;52.260;10.548;2023-10-19T04:20:46;98737.81;;;8.40;100.00
7050;BME280;22263;52.260;10.548;2023-10-19T04:23:25;98732.03;;;8.23;100.00
7050;BME280;22263;52.260;10.548;2023-10-19T04:26:02;98739.03;;;8.39;100.00
7050;BME280;22263;52.260;10.548;2023-10-19T04:28:41;98732.75;;;8.35;100.00
7050;BME280;22263;52.260;10.548;2023-10-19T04:31:19;98722.38;;;8.49;100.00
7050;BME280;22263;52.260;10.548;2023-10-19T04:33:51;98716.38;;;8.61;100.00
7050;BME280;22263;52.260;10.548;2023-10-19T04:36:21;98722.81;;;8.48;100.00
7050;BME280;22263;52.260;10.548;2023-10-19T04:38:52;98730.06;;;8.68;100.00
7050;BME280;22263;52.260;10.548;2023-10-19T04:41:22;98732.75;;;8.75;100.00
7050;BME280;22263;52.260;10.548;2023-10-19T04:43:57;98718.09;;;8.86;100.00
7050;BME280;22263;52.260;10.548;2023-10-19T04:46:27;98718.19;;;8.75;100.00
7050;BME280;22263;52.260;10.548;2023-10-19T04:48:57;98709.56;;;8.73;100.00
7050;BME280;22263;52.260;10.548;2023-10-19T04:51:29;98705.50;;;8.85;100.00
7050;BME280;22263;52.260;10.548;2023-10-19T04:54:01;98701.63;;;8.79;100.00
7050;BME280;22263;52.260;10.548;2023-10-19T04:56:31;98697.19;;;8.88;100.00
7050;BME280;22263;52.260;10.548;2023-10-19T04:59:05;98699.03;;;8.98;100.00
7050;BME280;22263;52.260;10.548;2023-10-19T05:01:41;98694.84;;;8.87;100.00
7050;BME280;22263;52.260;10.548;2023-10-19T05:04:17;98690.03;;;8.94;100.00
7050;BME280;22263;52.260;10.548;2023-10-19T05:06:50;98688.59;;;8.83;100.00
7050;BME280;22263;52.260;10.548;2023-10-19T05:09:22;98688.22;;;8.81;100.00
7050;BME280;22263;52.260;10.548;2023-10-19T05:11:51;98692.13;;;8.83;100.00
7050;BME280;22263;52.260;10.548;2023-10-19T05:14:24;98686.59;;;8.83;100.00
7050;BME280;22263;52.260;10.548;2023-10-19T05:16:54;98691.31;;;8.86;100.00
7050;BME280;22263;52.260;10.548;2023-10-19T05:19:25;98690.78;;;8.98;100.00
7050;BME280;22263;52.260;10.548;2023-10-19T05:21:55;98688.19;;;8.84;100.00
7050;BME280;22263;52.260;10.548;2023-10-19T05:24:25;98686.53;;;8.90;100.00
7050;BME280;22263;52.260;10.548;2023-10-19T05:26:55;98681.06;;;8.87;100.00
7050;BME280;22263;52.260;10.548;2023-10-19T05:29:28;98683.41;;;8.88;100.00
7050;BME280;22263;52.260;10.548;2023-10-19T05:32:00;98681.06;;;8.87;100.00
7050;BME280;22263;52.260;10.548;2023-10-19T05:34:30;98682.44;;;8.71;100.00
7050;BME280;22263;52.260;10.548;2023-10-19T05:37:02;98682.03;;;8.69;100.00
7050;BME280;22263;52.260;10.548;2023-10-19T05:39:32;98676.81;;;8.82;100.00
7050;BME280;22263;52.260;10.548;2023-10-19T05:42:03;98681.53;;;8.78;100.00
7050;BME280;22263;52.260;10.548;2023-10-19T05:44:36;98689.50;;;8.72;100.00
7050;BME280;22263;52.260;10.548;2023-10-19T05:47:06;98689.81;;;8.78;100.00
7050;BME280;22263;52.260;10.548;2023-10-19T05:49:36;98686.38;;;8.70;100.00
7050;BME280;22263;52.260;10.548;2023-10-19T05:52:06;98687.56;;;8.69;100.00
7050;BME280;22263;52.260;10.548;2023-10-19T05:54:35;98689.06;;;8.74;100.00
7050;BME280;22263;52.260;10.548;2023-10-19T05:57:05;98688.28;;;8.73;100.00
7050;BME280;22263;52.260;10.548;2023-10-19T05:59:38;98689.84;;;8.74;100.00
7050;BME280;22263;52.260;10.548;2023-10-19T06:02:08;98693.94;;;8.59;100.00
7050;BME280;22263;52.260;10.548;2023-10-19T06:04:38;98681.88;;;8.84;100.00
7050;BME280;22263;52.260;10.548;2023-10-19T06:07:08;98688.22;;;8.81;100.00
7050;BME280;22263;52.260;10.548;2023-10-19T06:09:38;98689.00;;;8.81;100.00
7050;BME280;22263;52.260;10.548;2023-10-19T06:12:08;98689.81;;;8.78;100.00
7050;BME280;22263;52.260;10.548;2023-10-19T06:14:40;98689.78;;;8.82;100.00
7050;BME280;22263;52.260;10.548;2023-10-19T06:17:10;98697.72;;;8.76;100.00
7050;BME280;22263;52.260;10.548;2023-10-19T06:19:46;98692.13;;;8.83;100.00
7050;BME280;22263;52.260;10.548;2023-10-19T06:22:16;98684.69;;;8.80;100.00
7050;BME280;22263;52.260;10.548;2023-10-19T06:24:46;98693.34;;;8.82;100.00
7050;BME280;22263;52.260;10.548;2023-10-19T06:27:15;98692.47;;;8.89;100.00
7050;BME280;22263;52.260;10.548;2023-10-19T06:29:48;98690.03;;;8.94;100.00
7050;BME280;22263;52.260;10.548;2023-10-19T06:32:18;98696.00;;;8.89;100.00
7050;BME280;22263;52.260;10.548;2023-10-19T06:34:48;98697.63;;;8.87;100.00
7050;BME280;22263;52.260;10.548;2023-10-19T06:37:18;98700.09;;;8.78;100.00
7050;BME280;22263;52.260;10.548;2023-10-19T06:39:47;98704.38;;;8.82;100.00
7050;BME280;22263;52.260;10.548;2023-10-19T06:42:18;98702.44;;;8.75;100.00
7050;BME280;22263;52.260;10.548;2023-10-19T06:44:50;98704.75;;;8.81;100.00
7050;BME280;22263;52.260;10.548;2023-10-19T06:47:22;98701.84;;;8.95;100.00
7050;BME280;22263;52.260;10.548;2023-10-19T06:49:52;98697.81;;;9.03;100.00
7050;BME280;22263;52.260;10.548;2023-10-19T06:52:22;98695.03;;;9.03;100.00
7050;BME280;22263;52.260;10.548;2023-10-19T06:54:52;98693.53;;;8.98;100.00
7050;BME280;22263;52.260;10.548;2023-10-19T06:57:22;98685.59;;;9.04;100.00
7050;BME280;22263;52.260;10.548;2023-10-19T06:59:54;98689.59;;;8.99;100.00
7050;BME280;22263;52.260;10.548;2023-10-19T07:02:24;98687.97;;;9.02;100.00
7050;BME280;22263;52.260;10.548;2023-10-19T07:04:54;98682.44;;;9.02;100.00
7050;BME280;22263;52.260;10.548;2023-10-19T07:07:24;98677.09;;;8.88;100.00
7050;BME280;22263;52.260;10.548;2023-10-19T07:09:54;98679.56;;;8.79;100.00
7050;BME280;22263;52.260;10.548;2023-10-19T07:12:24;98682.59;;;8.91;100.00
7050;BME280;22263;52.260;10.548;2023-10-19T07:14:56;98675.41;;;8.97;100.00
7050;BME280;22263;52.260;10.548;2023-10-19T07:17:27;98678.56;;;8.99;100.00
7050;BME280;22263;52.260;10.548;2023-10-19T07:19:59;98673.41;;;9.01;100.00
7050;BME280;22263;52.260;10.548;2023-10-19T07:22:30;98678.06;;;9.08;100.00
7050;BME280;22263;52.260;10.548;2023-10-19T07:25:00;98663.19;;;8.98;100.00
7050;BME280;22263;52.260;10.548;2023-10-19T07:27:33;98669.09;;;9.00;100.00
7050;BME280;22263;52.260;10.548;2023-10-19T07:30:08;98667.41;;;9.10;100.00
7050;BME280;22263;52.260;10.548;2023-10-19T07:32:39;98672.13;;;9.09;100.00
7050;BME280;22263;52.260;10.548;2023-10-19T07:35:09;98667.47;;;9.06;100.00
7050;BME280;22263;52.260;10.548;2023-10-19T07:37:40;98675.41;;;8.97;100.00
7050;BME280;22263;52.260;10.548;2023-10-19T07:40:11;98673.88;;;8.96;100.00
7050;BME280;22263;52.260;10.548;2023-10-19T07:42:42;98671.28;;;9.12;100.00
7050;BME280;22263;52.260;10.548;2023-10-19T07:45:14;98667.47;;;9.03;100.00
7050;BME280;22263;52.260;10.548;2023-10-19T07:47:44;98668.22;;;9.07;100.00
7050;BME280;22263;52.260;10.548;2023-10-19T07:50:14;98661.28;;;8.95;100.00
7050;BME280;22263;52.260;10.548;2023-10-19T07:52:46;98672.88;;;9.13;100.00
7050;BME280;22263;52.260;10.548;2023-10-19T07:55:17;98672.78;;;9.21;100.00
7050;BME280;22263;52.260;10.548;2023-10-19T07:57:48;98659.00;;;9.21;100.00
7050;BME280;22263;52.260;10.548;2023-10-19T08:00:21;98666.25;;;9.07;100.00
7050;BME280;22263;52.260;10.548;2023-10-19T08:02:52;98663.81;;;9.13;100.00
7050;BME280;22263;52.260;10.548;2023-10-19T08:05:23;98661.38;;;9.18;100.00
7050;BME280;22263;52.260;10.548;2023-10-19T08:07:53;98672.28;;;9.26;100.00
7050;BME280;22263;52.260;10.548;2023-10-19T08:10:24;98663.66;;;9.24;100.00
7050;BME280;22263;52.260;10.548;2023-10-19T08:12:54;98664.00;;;9.29;100.00
7050;BME280;22263;52.260;10.548;2023-10-19T08:15:29;98667.94;;;9.28;100.00
7050;BME280;22263;52.260;10.548;2023-10-19T08:17:59;98674.13;;;9.36;100.00
7050;BME280;22263;52.260;10.548;2023-10-19T08:20:29;98659.16;;;9.37;100.00
7050;BME280;22263;52.260;10.548;2023-10-19T08:23:04;98658.81;;;9.35;100.00
7050;BME280;22263;52.260;10.548;2023-10-19T08:25:34;98659.09;;;9.40;100.00
7050;BME280;22263;52.260;10.548;2023-10-19T08:28:22;98654.41;;;9.37;100.00
7050;BME280;22263;52.260;10.548;2023-10-19T08:30:55;98663.84;;;9.40;100.00
7050;BME280;22263;52.260;10.548;2023-10-19T08:33:28;98662.50;;;9.51;100.00
7050;BME280;22263;52.260;10.548;2023-10-19T08:36:01;98666.91;;;9.45;100.00
7050;BME280;22263;52.260;10.548;2023-10-19T08:38:31;98666.03;;;9.52;100.00
7050;BME280;22263;52.260;10.548;2023-10-19T08:41:01;98665.94;;;9.59;100.00
7050;BME280;22263;52.260;10.548;2023-10-19T08:43:31;98668.72;;;9.59;100.00
7050;BME280;22263;52.260;10.548;2023-10-19T08:46:09;98666.22;;;9.64;100.00
7050;BME280;22263;52.260;10.548;2023-10-19T08:48:41;98676.22;;;9.55;100.00
7050;BME280;22263;52.260;10.548;2023-10-19T08:51:12;98671.41;;;9.62;100.00
7050;BME280;22263;52.260;10.548;2023-10-19T08:53:43;98662.22;;;9.69;100.00
7050;BME280;22263;52.260;10.548;2023-10-19T08:56:14;98653.53;;;9.71;100.00
7050;BME280;22263;52.260;10.548;2023-10-19T08:58:46;98661.75;;;9.74;100.00
7050;BME280;22263;52.260;10.548;2023-10-19T09:01:19;98657.69;;;9.82;100.00
7050;BME280;22263;52.260;10.548;2023-10-19T09:03:51;98650.31;;;9.76;100.00
7050;BME280;22263;52.260;10.548;2023-10-19T09:06:21;98648.78;;;9.71;100.00
7050;BME280;22263;52.260;10.548;2023-10-19T09:08:51;98649.31;;;9.62;100.00
7050;BME280;22263;52.260;10.548;2023-10-19T09:11:21;98639.72;;;9.71;100.00
7050;BME280;22263;52.260;10.548;2023-10-19T09:13:52;98640.94;;;9.70;100.00
7050;BME280;22263;52.260;10.548;2023-10-19T09:16:27;98649.41;;;9.82;100.00
7050;BME280;22263;52.260;10.548;2023-10-19T09:18:58;98652.28;;;9.75;100.00
7050;BME280;22263;52.260;10.548;2023-10-19T09:21:28;98655.19;;;9.91;100.00
7050;BME280;22263;52.260;10.548;2023-10-19T09:24:00;98653.00;;;10.02;100.00
7050;BME280;22263;52.260;10.548;2023-10-19T09:26:30;98656.16;;;10.04;100.00
7050;BME280;22263;52.260;10.548;2023-10-19T09:29:01;98646.44;;;9.96;100.00
7050;BME280;22263;52.260;10.548;2023-10-19T09:31:33;98645.47;;;10.06;100.00
7050;BME280;22263;52.260;10.548;2023-10-19T09:34:04;98649.22;;;10.20;100.00
7050;BME280;22263;52.260;10.548;2023-10-19T09:36:38;98641.28;;;10.22;100.00
7050;BME280;22263;52.260;10.548;2023-10-19T09:39:10;98639.81;;;10.14;100.00
7050;BME280;22263;52.260;10.548;2023-10-19T09:41:40;98644.34;;;10.27;100.00
7050;BME280;22263;52.260;10.548;2023-10-19T09:44:11;98642.13;;;10.19;100.00
7050;BME280;22263;52.260;10.548;2023-10-19T09:46:45;98649.34;;;10.36;100.00
7050;BME280;22263;52.260;10.548;2023-10-19T09:49:16;98635.38;;;10.43;100.00
7050;BME280;22263;52.260;10.548;2023-10-19T09:51:47;98639.00;;;10.40;100.00
7050;BME280;22263;52.260;10.548;2023-10-19T09:54:42;98627.94;;;10.40;100.00
7050;BME280;22263;52.260;10.548;2023-10-19T09:57:19;98639.03;;;10.36;100.00
7050;BME280;22263;52.260;10.548;2023-10-19T09:59:58;98633.88;;;10.38;100.00
7050;BME280;22263;52.260;10.548;2023-10-19T10:02:42;98635.38;;;10.43;100.00
7050;BME280;22263;52.260;10.548;2023-10-19T10:05:44;98633.69;;;10.49;100.00
7050;BME280;22263;52.260;10.548;2023-10-19T10:08:29;98624.13;;;10.54;100.00
7050;BME280;22263;52.260;10.548;2023-10-19T10:11:13;98620.09;;;10.58;100.00
7050;BME280;22263;52.260;10.548;2023-10-19T10:13:44;98623.69;;;10.55;100.00
7050;BME280;22263;52.260;10.548;2023-10-19T10:16:19;98620.16;;;10.55;100.00
7050;BME280;22263;52.260;10.548;2023-10-19T10:18:55;98621.66;;;10.59;100.00
7050;BME280;22263;52.260;10.548;2023-10-19T10:21:27;98619.81;;;10.53;100.00
7050;BME280;22263;52.260;10.548;2023-10-19T10:23:58;98616.97;;;10.56;100.00
7050;BME280;22263;52.260;10.548;2023-10-19T10:26:31;98618.16;;;10.55;100.00
7050;BME280;22263;52.260;10.548;2023-10-19T10:29:11;98618.16;;;10.55;100.00
7050;BME280;22263;52.260;10.548;2023-10-19T10:31:47;98618.81;;;10.63;100.00
7050;BME280;22263;52.260;10.548;2023-10-19T10:34:47;98612.38;;;10.69;100.00
7050;BME280;22263;52.260;10.548;2023-10-19T10:37:17;98604.91;;;10.66;100.00
7050;BME280;22263;52.260;10.548;2023-10-19T10:39:47;98607.09;;;10.75;100.00
7050;BME280;22263;52.260;10.548;2023-10-19T10:42:17;98598.91;;;10.71;100.00
7050;BME280;22263;52.260;10.548;2023-10-19T10:44:48;98598.19;;;10.87;100.00
7050;BME280;22263;52.260;10.548;2023-10-19T10:47:23;98598.75;;;10.78;100.00
7050;BME280;22263;52.260;10.548;2023-10-19T10:50:00;98602.03;;;10.93;100.00
7050;BME280;22263;52.260;10.548;2023-10-19T10:52:32;98600.72;;;10.98;100.00
7050;BME280;22263;52.260;10.548;2023-10-19T10:55:07;98592.44;;;10.98;100.00
7050;BME280;22263;52.260;10.548;2023-10-19T10:57:39;98583.47;;;11.10;100.00
7050;BME280;22263;52.260;10.548;2023-10-19T11:00:11;98573.03;;;11.17;100.00
7050;BME280;22263;52.260;10.548;2023-10-19T11:02:44;98564.13;;;11.26;100.00
7050;BME280;22263;52.260;10.548;2023-10-19T11:05:21;98557.91;;;11.22;100.00
7050;BME280;22263;52.260;10.548;2023-10-19T11:08:06;98553.06;;;10.90;100.00
7050;BME280;22263;52.260;10.548;2023-10-19T11:10:36;98557.50;;;10.68;100.00
7050;BME280;22263;52.260;10.548;2023-10-19T11:13:07;98564.59;;;10.69;100.00
7050;BME280;22263;52.260;10.548;2023-10-19T11:15:38;98575.50;;;10.76;100.00
7050;BME280;22263;52.260;10.548;2023-10-19T11:18:09;98583.97;;;11.05;100.00
7050;BME280;22263;52.260;10.548;2023-10-19T11:20:41;98579.13;;;11.09;100.00
7050;BME280;22263;52.260;10.548;2023-10-19T11:23:13;98579.13;;;11.09;100.00
7050;BME280;22263;52.260;10.548;2023-10-19T11:25:43;98567.66;;;11.10;100.00
7050;BME280;22263;52.260;10.548;2023-10-19T11:28:17;98561.00;;;11.24;100.00
7050;BME280;22263;52.260;10.548;2023-10-19T11:30:47;98563.34;;;11.42;100.00
7050;BME280;22263;52.260;10.548;2023-10-19T11:33:18;98557.81;;;11.42;100.00
7050;BME280;22263;52.260;10.548;2023-10-19T11:35:54;98564.91;;;11.26;100.00
7050;BME280;22263;52.260;10.548;2023-10-19T11:38:24;98556.34;;;11.37;100.00
7050;BME280;22263;52.260;10.548;2023-10-19T11:40:54;98544.44;;;11.40;100.00
7050;BME280;22263;52.260;10.548;2023-10-19T11:43:24;98547.53;;;11.26;100.00
7050;BME280;22263;52.260;10.548;2023-10-19T11:45:55;98541.66;;;11.40;100.00
7050;BME280;22263;52.260;10.548;2023-10-19T11:48:26;98546.84;;;11.38;100.00
7050;BME280;22263;52.260;10.548;2023-10-19T11:51:01;98544.75;;;11.42;100.00
7050;BME280;22263;52.260;10.548;2023-10-19T11:53:34;98552.63;;;11.27;100.00
7050;BME280;22263;52.260;10.548;2023-10-19T11:56:05;98555.22;;;11.18;100.00
7050;BME280;22263;52.260;10.548;2023-10-19T11:58:39;98553.72;;;11.14;100.00
7050;BME280;22263;52.260;10.548;2023-10-19T12:01:11;98559.78;;;11.09;100.00
7050;BME280;22263;52.260;10.548;2023-10-19T12:03:45;98560.63;;;11.06;100.00
7050;BME280;22263;52.260;10.548;2023-10-19T12:06:18;98556.66;;;11.07;100.00
7050;BME280;22263;52.260;10.548;2023-10-19T12:08:51;98562.53;;;11.09;100.00
7050;BME280;22263;52.260;10.548;2023-10-19T12:11:27;98561.50;;;11.03;100.00
7050;BME280;22263;52.260;10.548;2023-10-19T12:13:57;98568.63;;;11.20;100.00
7050;BME280;22263;52.260;10.548;2023-10-19T12:16:30;98559.97;;;11.18;100.00
7050;BME280;22263;52.260;10.548;2023-10-19T12:19:01;98555.81;;;11.10;100.00
7050;BME280;22263;52.260;10.548;2023-10-19T12:21:33;98564.97;;;11.07;100.00
7050;BME280;22263;52.260;10.548;2023-10-19T12:24:06;98566.88;;;11.10;100.00
7050;BME280;22263;52.260;10.548;2023-10-19T12:26:38;98561.84;;;11.05;100.00
7050;BME280;22263;52.260;10.548;2023-10-19T12:29:10;98552.69;;;11.08;100.00
7050;BME280;22263;52.260;10.548;2023-10-19T12:31:43;98564.00;;;10.97;100.00
7050;BME280;22263;52.260;10.548;2023-10-19T12:34:14;98565.25;;;11.12;100.00
7050;BME280;22263;52.260;10.548;2023-10-19T12:36:48;98571.63;;;11.09;100.00
7050;BME280;22263;52.260;10.548;2023-10-19T12:39:22;98561.34;;;11.10;100.00
7050;BME280;22263;52.260;10.548;2023-10-19T12:42:08;98559.94;;;11.02;100.00
7050;BME280;22263;52.260;10.548;2023-10-19T12:44:45;98550.78;;;11.05;100.00
7050;BME280;22263;52.260;10.548;2023-10-19T12:47:19;98552.69;;;11.08;100.00
7050;BME280;22263;52.260;10.548;2023-10-19T12:49:52;98551.72;;;10.98;100.00
7050;BME280;22263;52.260;10.548;2023-10-19T12:52:25;98560.25;;;10.87;100.00
7050;BME280;22263;52.260;10.548;2023-10-19T12:55:00;98543.66;;;10.87;100.00
7050;BME280;22263;52.260;10.548;2023-10-19T12:57:33;98546.22;;;10.78;100.00
7050;BME280;22263;52.260;10.548;2023-10-19T13:00:09;98546.44;;;10.87;100.00
7050;BME280;22263;52.260;10.548;2023-10-19T13:02:55;98541.19;;;10.93;100.00
7050;BME280;22263;52.260;10.548;2023-10-19T13:05:33;98529.06;;;10.87;100.00
7050;BME280;22263;52.260;10.548;2023-10-19T13:08:08;98543.50;;;10.94;100.00
7050;BME280;22263;52.260;10.548;2023-10-19T13:10:41;98542.97;;;10.83;100.00
7050;BME280;22263;52.260;10.548;2023-10-19T13:13:13;98538.63;;;10.82;100.00
7050;BME280;22263;52.260;10.548;2023-10-19T13:15:45;98534.59;;;10.67;100.00
7050;BME280;22263;52.260;10.548;2023-10-19T13:18:15;98533.53;;;10.61;100.00
7050;BME280;22263;52.260;10.548;2023-10-19T13:20:49;98535.97;;;10.59;100.00
7050;BME280;22263;52.260;10.548;2023-10-19T13:23:23;98532.91;;;10.73;100.00
7050;BME280;22263;52.260;10.548;2023-10-19T13:25:56;98514.44;;;10.86;100.00
7050;BME280;22263;52.260;10.548;2023-10-19T13:28:39;98523.47;;;10.71;100.00